Gobblers Point, Arkansas
Current Conditions -  °F | °C
As of 12:53 PM on Sunday 23 Nov 2014 (Local Time) from KRUE Reporting Station
Overcast Overcast  
Wind Chill: 61°   Ceiling: 900
Heat Index: 61°   Visibility: 10mi
Dew Point: 58°   Wind: 3mph
Humidity: 90%   Direction: 90°E
Pressure: 29.38"   Gusts: NA
Location:  35.3927°N, 92.8078°W
Report Text: KRUE 231853Z AUTO 09003KT 10SM OVC009 16/14 A2938 RMK AO2 CIG 006V011 SLP943 T01610144
Loading
Personal Weather Stations






























Interactive Weather Map New forecast layout! Learn more

10-Day Weather Forecast

Advertisements
Track Severe Weather on mobile